Time;durP1;ratioP1;P1;durP2;ratioP2;P2;SDS_P1;SDS_P2;PMS_P1;PMS_P2;Temp;Humidity;BMP_temperature;BMP_pressure;BME280_temperature;BME280_humidity;BME280_pressure;Samples;Min_cycle;Max_cycle;Signal;HPM_P1;HPM_P2
2022/03/11 00:02:29;;;;;;;21.00;9.73;;;;;;;8.55;39.18;100414.16;5032462;28;20504;-81
2022/03/11 00:04:57;;;;;;;18.98;9.00;;;;;;;8.54;39.17;100409.84;5017151;28;20072;-81
2022/03/11 00:07:24;;;;;;;18.30;9.98;;;;;;;8.52;39.65;100412.59;5028235;28;20083;-81
2022/03/11 00:09:52;;;;;;;21.05;9.30;;;;;;;8.52;39.55;100407.28;5015396;28;20459;-81
2022/03/11 00:12:19;;;;;;;21.58;10.35;;;;;;;8.53;39.66;100408.16;5011427;28;20045;-81
2022/03/11 00:14:46;;;;;;;22.08;10.07;;;;;;;8.52;39.55;100412.59;5002996;28;20057;-81
2022/03/11 00:17:13;;;;;;;20.52;10.20;;;;;;;8.50;39.46;100400.41;5010787;28;20045;-81
2022/03/11 00:19:39;;;;;;;19.08;10.13;;;;;;;8.50;39.42;100403.06;5007455;28;20045;-81
2022/03/11 00:22:06;;;;;;;20.85;10.27;;;;;;;8.47;39.48;100405.00;5005882;28;20040;-81
2022/03/11 00:24:33;;;;;;;20.73;9.93;;;;;;;8.43;39.79;100415.91;5022622;28;20055;-81
2022/03/11 00:27:00;;;;;;;23.02;10.90;;;;;;;8.38;39.42;100400.31;5006681;28;20052;-81
2022/03/11 00:29:28;;;;;;;25.73;11.07;;;;;;;8.35;39.54;100405.81;5004131;28;20124;-81
2022/03/11 00:31:54;;;;;;;21.55;10.93;;;;;;;8.32;40.16;100395.47;5023197;28;20511;-81
2022/03/11 00:34:21;;;;;;;18.35;10.00;;;;;;;8.29;40.30;100397.44;5006559;28;20068;-81
2022/03/11 00:36:48;;;;;;;18.55;9.38;;;;;;;8.29;40.31;100400.09;5008201;28;20049;-81
2022/03/11 00:39:16;;;;;;;25.30;10.60;;;;;;;8.29;40.09;100400.09;5019107;28;20044;-81
2022/03/11 00:41:42;;;;;;;23.80;10.95;;;;;;;8.22;40.16;100403.19;5035934;28;20049;-81
2022/03/11 00:44:10;;;;;;;23.70;10.50;;;;;;;8.19;40.06;100395.47;5006600;28;20416;-81
2022/03/11 00:46:36;;;;;;;24.33;10.80;;;;;;;8.19;40.15;100387.53;5035590;28;20032;-81
2022/03/11 00:49:03;;;;;;;19.45;10.18;;;;;;;8.16;40.20;100398.31;5004009;28;20044;-81
2022/03/11 00:51:30;;;;;;;21.67;10.75;;;;;;;8.10;40.36;100393.44;5018710;28;20057;-81
2022/03/11 00:53:57;;;;;;;26.63;11.43;;;;;;;8.11;40.34;100397.78;5039106;28;20041;-81
2022/03/11 00:56:24;;;;;;;25.05;10.98;;;;;;;8.09;40.56;100397.06;5031563;28;20105;-81
2022/03/11 00:58:51;;;;;;;22.45;10.93;;;;;;;8.08;40.39;100399.78;5002357;28;20048;-81
2022/03/11 01:01:18;;;;;;;23.33;10.93;;;;;;;8.09;40.27;100397.06;5013009;28;20532;-81
2022/03/11 01:03:45;;;;;;;24.33;11.20;;;;;;;8.07;40.73;100403.41;5019939;28;20424;-81
2022/03/11 01:06:12;;;;;;;22.42;10.20;;;;;;;8.04;40.40;100396.53;5016625;28;20068;-81
2022/03/11 01:08:39;;;;;;;21.13;10.38;;;;;;;8.00;40.91;100395.88;5050904;28;20044;-81
2022/03/11 01:11:08;;;;;;;22.38;11.15;;;;;;;8.00;40.54;100387.94;5005665;28;20036;-81
2022/03/11 01:13:35;;;;;;;23.50;11.10;;;;;;;8.01;40.68;100392.28;5020502;28;20490;-81
2022/03/11 01:16:02;;;;;;;17.95;10.02;;;;;;;7.96;40.55;100390.91;5033927;28;20045;-81
2022/03/11 01:18:29;;;;;;;23.30;10.98;;;;;;;7.94;40.53;100391.03;4998228;28;20063;-81
2022/03/11 01:20:58;;;;;;;26.20;11.80;;;;;;;7.93;41.00;100391.94;5023981;28;20044;-81
2022/03/11 01:23:25;;;;;;;23.02;10.95;;;;;;;7.90;40.89;100386.88;5009415;28;20599;-81
2022/03/11 01:25:51;;;;;;;24.90;11.48;;;;;;;7.90;40.92;100380.75;5026135;28;20051;-81
2022/03/11 01:28:18;;;;;;;20.65;11.23;;;;;;;7.89;41.00;100390.50;5006920;28;20046;-81
2022/03/11 01:30:45;;;;;;;25.17;12.00;;;;;;;7.87;40.94;100386.25;5002226;28;20055;-81
2022/03/11 01:33:11;;;;;;;24.20;12.27;;;;;;;7.85;40.86;100382.88;5034237;28;20064;-81
2022/03/11 01:35:41;;;;;;;23.73;12.32;;;;;;;7.82;41.40;100382.13;5019782;28;20056;-81
2022/03/11 01:38:08;;;;;;;27.73;12.27;;;;;;;7.83;40.94;100385.59;5028436;28;20048;-81
2022/03/11 01:40:34;;;;;;;26.98;11.40;;;;;;;7.82;40.82;100386.56;5027668;28;20033;-81
2022/03/11 01:43:01;;;;;;;26.25;12.63;;;;;;;7.81;41.17;100376.91;5034277;28;20106;-81
2022/03/11 01:45:29;;;;;;;23.27;12.05;;;;;;;7.80;41.14;100377.88;5023060;28;20048;-81
2022/03/11 01:47:55;;;;;;;26.63;12.25;;;;;;;7.70;41.12;100372.38;4997677;28;20049;-81
2022/03/11 01:50:22;;;;;;;26.02;12.20;;;;;;;7.70;41.11;100379.47;5015441;28;20049;-81
2022/03/11 01:52:49;;;;;;;23.52;12.40;;;;;;;7.69;40.98;100373.34;5024354;28;20044;-81
2022/03/11 01:55:16;;;;;;;26.60;11.38;;;;;;;7.66;41.38;100377.97;5023563;28;20617;-81
2022/03/11 01:57:47;;;;;;;22.98;11.98;;;;;;;7.61;41.44;100376.50;5004362;28;20575;-81
2022/03/11 02:00:14;;;;;;;23.35;12.02;;;;;;;7.65;41.37;100371.84;5004652;28;20043;-81
2022/03/11 02:02:42;;;;;;;25.38;12.25;;;;;;;7.49;42.19;100372.03;5019346;28;20041;-81
2022/03/11 02:05:09;;;;;;;22.90;11.05;;;;;;;7.57;41.64;100372.34;4993529;28;20837;-81
2022/03/11 02:07:36;;;;;;;28.67;13.25;;;;;;;7.57;41.72;100372.34;5018191;28;20392;-81
2022/03/11 02:10:03;;;;;;;29.50;13.60;;;;;;;7.58;41.96;100366.13;5037526;28;20496;-81
2022/03/11 02:12:32;;;;;;;25.30;12.80;;;;;;;7.58;42.00;100370.56;5021334;28;20040;-81
2022/03/11 02:15:04;;;;;;;26.70;12.82;;;;;;;7.57;41.60;100371.50;5030604;28;20037;-81
2022/03/11 02:17:30;;;;;;;29.65;13.32;;;;;;;7.48;41.80;100369.47;5034494;28;20086;-81
2022/03/11 02:19:57;;;;;;;26.15;13.93;;;;;;;7.50;41.81;100368.44;5017889;28;20453;-81
2022/03/11 02:22:25;;;;;;;28.23;13.13;;;;;;;7.52;41.86;100369.19;5020725;28;20049;-81
2022/03/11 02:24:53;;;;;;;29.13;13.57;;;;;;;7.50;41.90;100376.34;5029622;28;20060;-81
2022/03/11 02:27:20;;;;;;;23.10;12.20;;;;;;;7.46;41.74;100377.53;5009073;28;20036;-81
2022/03/11 02:29:48;;;;;;;25.95;12.73;;;;;;;7.44;41.80;100374.13;5028352;28;20543;-81
2022/03/11 02:32:15;;;;;;;33.58;13.25;;;;;;;7.39;42.06;100377.06;5019202;28;20048;-81
2022/03/11 02:34:42;;;;;;;30.08;13.57;;;;;;;7.33;41.91;100366.94;5033578;28;20950;-81
2022/03/11 02:37:09;;;;;;;31.55;13.45;;;;;;;7.32;42.16;100374.94;5020844;28;20618;-81
2022/03/11 02:39:36;;;;;;;22.17;12.40;;;;;;;7.28;42.10;100365.56;4989081;28;20064;-81
2022/03/11 02:42:04;;;;;;;29.83;13.15;;;;;;;7.25;42.07;100368.38;5019948;28;20090;-82
2022/03/11 02:44:31;;;;;;;28.92;13.15;;;;;;;7.25;42.25;100369.25;5032358;28;21255;-81
2022/03/11 02:47:02;;;;;;;25.17;12.48;;;;;;;7.20;42.23;100371.34;5002609;28;20079;-81
2022/03/11 02:49:29;;;;;;;27.33;13.88;;;;;;;7.22;42.02;100363.28;5009672;28;20041;-81
2022/03/11 02:51:56;;;;;;;28.52;13.02;;;;;;;7.12;42.11;100358.63;5008465;28;20091;-81
2022/03/11 02:54:24;;;;;;;27.83;12.50;;;;;;;7.12;42.35;100352.47;5027370;28;20106;-81
2022/03/11 02:56:50;;;;;;;28.10;12.25;;;;;;;7.02;42.25;100354.03;4988394;28;20053;-81
2022/03/11 02:59:17;;;;;;;23.15;12.70;;;;;;;6.98;42.49;100358.69;5016765;28;20045;-82
2022/03/11 03:01:44;;;;;;;26.60;13.90;;;;;;;6.92;42.61;100348.50;5017590;28;20087;-81
2022/03/11 03:04:11;;;;;;;32.00;13.50;;;;;;;6.86;42.58;100344.47;5031328;28;20044;-81
2022/03/11 03:06:39;;;;;;;29.77;14.70;;;;;;;6.85;42.63;100349.88;5003813;28;20127;-81
2022/03/11 03:09:07;;;;;;;27.42;12.93;;;;;;;6.83;42.78;100347.31;5013863;28;20037;-81
2022/03/11 03:11:34;;;;;;;27.05;14.27;;;;;;;6.81;42.82;100346.56;5007703;28;20130;-81
2022/03/11 03:14:01;;;;;;;29.00;13.70;;;;;;;6.78;42.91;100352.06;5009018;28;20045;-82
2022/03/11 03:16:27;;;;;;;29.73;13.73;;;;;;;6.61;43.41;100347.00;4987856;28;20119;-82
2022/03/11 03:18:55;;;;;;;25.27;12.50;;;;;;;6.71;42.88;100348.94;5006497;28;20045;-82
2022/03/11 03:21:22;;;;;;;31.48;13.60;;;;;;;6.72;42.84;100347.19;5013088;28;20450;-81
2022/03/11 03:23:48;;;;;;;32.90;15.35;;;;;;;6.71;43.12;100348.94;5018415;28;20041;-82
2022/03/11 03:26:15;;;;;;;30.73;14.57;;;;;;;6.76;43.14;100350.44;5016457;28;20040;-81
2022/03/11 03:28:42;;;;;;;30.67;13.63;;;;;;;6.76;42.92;100353.94;5007949;28;20045;-82
2022/03/11 03:31:18;;;;;;;32.38;14.43;;;;;;;6.77;43.31;100352.13;5025829;28;20041;-82
2022/03/11 03:33:45;;;;;;;28.30;14.00;;;;;;;6.78;43.16;100345.94;5024229;28;20056;-81
2022/03/11 03:36:12;;;;;;;33.83;15.35;;;;;;;6.79;43.22;100347.63;5011878;28;20045;-81
2022/03/11 03:38:38;;;;;;;31.55;14.90;;;;;;;6.79;42.89;100342.34;5013737;28;20544;-81
2022/03/11 03:41:05;;;;;;;30.45;14.57;;;;;;;6.80;43.14;100342.25;5029083;28;20814;-81
2022/03/11 03:43:33;;;;;;;27.60;14.48;;;;;;;6.79;42.88;100344.97;5023097;28;20040;-81
2022/03/11 03:46:00;;;;;;;33.15;15.02;;;;;;;6.78;42.91;100341.50;5011448;28;20455;-81
2022/03/11 03:48:28;;;;;;;29.95;14.25;;;;;;;6.73;42.55;100341.78;5020268;28;20132;-81
2022/03/11 03:50:55;;;;;;;30.25;13.88;;;;;;;6.69;42.65;100344.72;5028627;28;20045;-81
2022/03/11 03:53:21;;;;;;;31.10;15.05;;;;;;;6.64;42.82;100345.03;5021531;28;20507;-81
2022/03/11 03:55:48;;;;;;;33.72;14.80;;;;;;;6.63;42.77;100329.28;5055893;28;20552;-81
2022/03/11 03:58:15;;;;;;;30.75;15.50;;;;;;;6.62;42.93;100332.88;5023608;28;20051;-82
2022/03/11 04:00:42;;;;;;;36.85;16.30;;;;;;;6.58;42.99;100331.38;5025929;28;20040;-81
2022/03/11 04:03:08;;;;;;;29.67;14.15;;;;;;;6.55;42.93;100337.69;5019264;28;20056;-81
2022/03/11 04:05:36;;;;;;;28.98;14.40;;;;;;;6.52;43.24;100341.38;5003665;28;20496;-81
2022/03/11 04:08:02;;;;;;;28.60;14.45;;;;;;;6.52;42.96;100330.81;5028404;28;20044;-81
2022/03/11 04:10:29;;;;;;;34.25;13.98;;;;;;;6.51;43.11;100337.06;5029017;28;20047;-81
2022/03/11 04:12:57;;;;;;;33.70;15.82;;;;;;;6.52;43.22;100332.63;4998688;28;20045;-82
2022/03/11 04:15:24;;;;;;;29.88;13.98;;;;;;;6.53;43.09;100342.22;5020662;28;20377;-81
2022/03/11 04:17:50;;;;;;;35.25;14.50;;;;;;;6.49;42.77;100333.66;5003906;28;20049;-81
2022/03/11 04:20:18;;;;;;;28.70;13.75;;;;;;;6.48;42.89;100325.81;5031747;28;20047;-81
2022/03/11 04:22:45;;;;;;;31.42;14.98;;;;;;;6.49;42.97;100330.19;5003602;28;20461;-81
2022/03/11 04:25:14;;;;;;;29.25;15.15;;;;;;;6.46;42.92;100323.31;5031678;28;20385;-81
2022/03/11 04:27:41;;;;;;;26.80;13.70;;;;;;;6.46;42.90;100323.31;5012516;28;20167;-81
2022/03/11 04:30:08;;;;;;;27.30;13.40;;;;;;;6.47;43.12;100327.63;5028803;28;20040;-81
2022/03/11 04:32:35;;;;;;;29.95;14.18;;;;;;;6.47;43.20;100317.06;5024477;28;20063;-81
2022/03/11 04:35:03;;;;;;;29.33;15.00;;;;;;;6.46;42.90;100325.06;5034042;28;20052;-81
2022/03/11 04:37:30;;;;;;;26.75;14.45;;;;;;;6.46;42.61;100325.06;4993577;28;20040;-81
2022/03/11 04:39:57;;;;;;;27.05;13.98;;;;;;;6.43;42.91;100326.13;5034013;28;20056;-81
2022/03/11 04:42:25;;;;;;;25.67;12.98;;;;;;;6.42;42.85;100336.78;5029371;28;20773;-81
2022/03/11 04:44:51;;;;;;;27.50;13.25;;;;;;;6.41;42.82;100335.94;5005260;28;20044;-81
2022/03/11 04:47:18;;;;;;;29.50;13.00;;;;;;;6.39;42.40;100335.19;5017401;28;20124;-81
2022/03/11 04:49:45;;;;;;;28.02;13.90;;;;;;;6.41;42.37;100332.44;4996695;28;20439;-82
2022/03/11 04:52:12;;;;;;;28.13;13.55;;;;;;;6.37;42.20;100328.31;5035814;28;20461;-81
2022/03/11 04:54:39;;;;;;;27.83;13.30;;;;;;;6.34;42.14;100326.72;5031844;28;20045;-81
2022/03/11 04:57:05;;;;;;;29.67;13.48;;;;;;;6.32;41.90;100333.88;5033454;28;20078;-81
2022/03/11 04:59:32;;;;;;;31.35;13.90;;;;;;;6.29;41.88;100328.78;5018558;28;20416;-81
2022/03/11 05:01:59;;;;;;;30.30;13.38;;;;;;;6.24;41.88;100336.97;5019962;28;20055;-81
2022/03/11 05:04:26;;;;;;;29.67;13.55;;;;;;;6.24;41.92;100336.16;4995453;28;20546;-81
2022/03/11 05:06:52;;;;;;;28.58;12.82;;;;;;;6.21;42.17;100336.34;5009224;28;20045;-81
2022/03/11 05:09:19;;;;;;;27.08;12.93;;;;;;;6.19;41.97;100335.59;5026177;28;20048;-81
2022/03/11 05:11:46;;;;;;;26.33;13.35;;;;;;;6.19;41.80;100343.50;5037578;28;20123;-81
2022/03/11 05:14:13;;;;;;;29.90;14.00;;;;;;;6.16;42.25;100341.06;5036530;28;20045;-81
2022/03/11 05:16:40;;;;;;;29.08;12.45;;;;;;;6.16;41.98;100341.06;5006956;28;20478;-84
2022/03/11 05:19:08;;;;;;;27.67;13.73;;;;;;;6.11;41.84;100341.34;5002089;28;20485;-78
2022/03/11 05:21:34;;;;;;;31.35;14.68;;;;;;;6.08;41.74;100338.88;5040555;28;20053;-78
2022/03/11 05:24:01;;;;;;;28.33;13.93;;;;;;;6.02;42.04;100347.16;5036213;28;20052;-78
2022/03/11 05:26:29;;;;;;;30.73;14.10;;;;;;;6.01;42.18;100353.38;5019603;28;20037;-78
2022/03/11 05:28:58;;;;;;;27.17;13.00;;;;;;;5.99;41.60;100344.72;5021371;28;20048;-78
2022/03/11 05:31:26;;;;;;;31.30;13.98;;;;;;;5.97;41.37;100344.81;5031104;28;20056;-78
2022/03/11 05:33:54;;;;;;;26.42;12.88;;;;;;;5.90;41.46;100351.34;5013034;28;20084;-78
2022/03/11 05:36:22;;;;;;;25.92;12.45;;;;;;;5.89;41.82;100357.56;5026267;28;20051;-77
2022/03/11 05:38:49;;;;;;;27.63;13.52;;;;;;;5.85;41.66;100367.47;4993896;28;20049;-78
2022/03/11 05:41:16;;;;;;;29.25;12.73;;;;;;;5.79;41.33;100370.44;5029628;28;20040;-78
2022/03/11 05:43:43;;;;;;;26.98;13.63;;;;;;;5.78;41.69;100374.03;5026655;28;20056;-77
2022/03/11 05:46:09;;;;;;;26.05;12.77;;;;;;;5.72;41.46;100369.13;5028874;28;20052;-78
2022/03/11 05:48:36;;;;;;;24.45;12.40;;;;;;;5.73;41.58;100362.09;5044314;28;20132;-78
2022/03/11 05:51:06;;;;;;;27.67;12.38;;;;;;;5.74;41.53;100359.34;5008682;28;20063;-78
2022/03/11 05:53:33;;;;;;;27.90;12.25;;;;;;;5.75;41.42;100354.91;5016898;28;20110;-77
2022/03/11 05:56:00;;;;;;;24.52;12.95;;;;;;;5.66;41.36;100353.69;5018625;28;20504;-77
2022/03/11 05:58:27;;;;;;;25.92;12.35;;;;;;;5.64;41.37;100345.03;5024949;28;20063;-77
2022/03/11 06:00:53;;;;;;;30.58;12.50;;;;;;;5.61;41.43;100353.97;5022219;28;20044;-78
2022/03/11 06:03:20;;;;;;;27.05;13.18;;;;;;;5.61;41.24;100356.59;5020842;28;20048;-77
2022/03/11 06:05:48;;;;;;;23.20;11.57;;;;;;;5.62;41.79;100353.03;5009077;28;20105;-80
2022/03/11 06:08:22;;;;;;;22.58;10.80;;;;;;;5.62;41.17;100355.66;5036952;28;20052;-80
2022/03/11 06:10:49;;;;;;;25.92;11.10;;;;;;;5.62;41.44;100357.44;5022253;28;20083;-80
2022/03/11 06:13:15;;;;;;;22.67;10.90;;;;;;;5.66;40.88;100356.31;5031170;28;20517;-80
2022/03/11 06:15:43;;;;;;;23.23;10.93;;;;;;;5.65;41.13;100352.84;5003128;28;20037;-80
2022/03/11 06:18:12;;;;;;;23.90;11.40;;;;;;;5.65;40.88;100352.00;5032246;28;20132;-80
2022/03/11 06:20:39;;;;;;;23.73;11.02;;;;;;;5.64;40.91;100350.28;5029135;28;20041;-80
2022/03/11 06:23:06;;;;;;;26.88;11.25;;;;;;;5.61;40.65;100345.22;5029347;28;20052;-81
2022/03/11 06:25:32;;;;;;;22.95;12.05;;;;;;;5.60;40.99;100354.91;4984467;28;20065;-81
2022/03/11 06:27:59;;;;;;;21.25;11.45;;;;;;;5.59;40.83;100358.47;5035322;28;20037;-81
2022/03/11 06:30:30;;;;;;;21.80;12.00;;;;;;;5.58;40.72;100354.16;5050134;28;20044;-80
2022/03/11 06:32:57;;;;;;;22.38;10.35;;;;;;;5.55;40.50;100350.84;5019832;28;20656;-80
2022/03/11 06:35:24;;;;;;;21.20;10.40;;;;;;;5.60;39.81;100356.69;5029290;28;20040;-80
2022/03/11 06:37:51;;;;;;;17.85;9.85;;;;;;;5.50;40.43;100351.13;5030607;28;20048;-80
2022/03/11 06:40:19;;;;;;;23.98;11.93;;;;;;;5.49;40.49;100348.56;5031972;28;20467;-81
2022/03/11 06:42:48;;;;;;;21.08;10.55;;;;;;;5.25;39.73;100362.25;5034888;28;20056;-80
2022/03/11 06:45:16;;;;;;;19.40;10.27;;;;;;;5.28;40.42;100356.78;5026802;28;20066;-81
2022/03/11 06:47:46;;;;;;;22.63;10.70;;;;;;;5.26;39.91;100357.81;5014345;28;20480;-80
2022/03/11 06:50:14;;;;;;;22.20;10.32;;;;;;;5.36;40.58;100357.19;5033910;28;20036;-80
2022/03/11 06:52:41;;;;;;;19.58;10.43;;;;;;;5.40;40.58;100352.59;5010501;28;20072;-80
2022/03/11 06:55:08;;;;;;;20.23;9.45;;;;;;;5.33;40.61;100359.16;5018429;28;20040;-81
2022/03/11 06:57:34;;;;;;;22.02;10.43;;;;;;;5.38;40.46;100355.31;5031958;28;20037;-80
2022/03/11 07:00:03;;;;;;;22.83;10.30;;;;;;;5.33;40.64;100359.16;5030128;28;20423;-80
2022/03/11 07:02:30;;;;;;;21.15;9.98;;;;;;;5.41;40.72;100357.75;5024513;28;20519;-80
2022/03/11 07:04:57;;;;;;;21.60;10.30;;;;;;;5.46;40.61;100356.66;5028745;28;20095;-80
2022/03/11 07:07:24;;;;;;;20.35;10.15;;;;;;;5.50;40.41;100358.19;5033810;28;20049;-80
2022/03/11 07:09:51;;;;;;;24.15;10.77;;;;;;;5.52;40.50;100357.16;5017079;28;20041;-80
2022/03/11 07:12:18;;;;;;;17.70;9.20;;;;;;;5.56;40.68;100357.81;5020281;28;20076;-81
2022/03/11 07:14:45;;;;;;;22.13;10.00;;;;;;;5.56;40.39;100357.81;5024460;28;20057;-80
2022/03/11 07:17:12;;;;;;;18.02;9.25;;;;;;;5.57;40.50;100364.75;5046379;28;20045;-81
2022/03/11 07:19:39;;;;;;;18.90;9.38;;;;;;;5.60;40.21;100356.69;5014254;28;20381;-80
2022/03/11 07:22:06;;;;;;;20.65;9.98;;;;;;;5.62;40.16;100352.16;5011243;28;20064;-80
2022/03/11 07:24:33;;;;;;;17.42;8.80;;;;;;;5.63;40.07;100359.16;4996587;28;20405;-81
2022/03/11 07:27:00;;;;;;;21.25;10.20;;;;;;;5.61;39.74;100361.84;5016679;28;20049;-81
2022/03/11 07:29:27;;;;;;;18.30;8.93;;;;;;;5.58;40.01;100356.78;5004892;28;20519;-80
2022/03/11 07:31:54;;;;;;;20.80;9.02;;;;;;;5.63;39.96;100364.41;5048643;28;20511;-80
2022/03/11 07:34:26;;;;;;;17.48;9.18;;;;;;;5.65;40.31;100365.19;5029634;28;20044;-81
2022/03/11 07:36:52;;;;;;;17.67;8.55;;;;;;;5.64;39.85;100364.31;5047631;28;20055;-80
2022/03/11 07:39:20;;;;;;;17.60;8.52;;;;;;;5.58;39.51;100369.94;5004247;28;20128;-80
2022/03/11 07:41:48;;;;;;;18.70;8.52;;;;;;;5.59;39.13;100363.72;4999172;28;20044;-80
2022/03/11 07:44:15;;;;;;;17.40;8.50;;;;;;;5.58;39.32;100355.94;5030056;28;20774;-80
2022/03/11 07:46:49;;;;;;;18.05;8.02;;;;;;;5.55;39.59;100351.69;5017715;28;20045;-80
2022/03/11 07:49:17;;;;;;;13.35;7.32;;;;;;;5.60;39.22;100361.97;5010272;28;20075;-81
2022/03/11 07:51:43;;;;;;;16.48;8.40;;;;;;;5.66;39.87;100364.22;5031139;28;20056;-81
2022/03/11 07:54:10;;;;;;;16.65;7.88;;;;;;;5.71;39.69;100358.69;5020507;28;20044;-81
2022/03/11 07:56:37;;;;;;;18.48;8.10;;;;;;;5.61;38.69;100369.75;5031553;28;20053;-81
2022/03/11 07:59:06;;;;;;;14.90;7.63;;;;;;;5.70;39.34;100351.69;5028267;28;20577;-81
2022/03/11 08:01:33;;;;;;;15.60;7.45;;;;;;;5.71;39.05;100356.06;5011826;28;20044;-81
2022/03/11 08:04:00;;;;;;;17.70;8.02;;;;;;;5.78;39.05;100362.66;5029870;28;20484;-81
2022/03/11 08:06:27;;;;;;;16.15;8.07;;;;;;;5.79;39.17;100359.06;5029288;28;20171;-80
2022/03/11 08:08:58;;;;;;;13.70;6.80;;;;;;;5.80;39.63;100364.25;5015190;28;20670;-80
2022/03/11 08:11:24;;;;;;;14.52;7.60;;;;;;;5.83;39.38;100363.22;5031060;28;20483;-81
2022/03/11 08:13:51;;;;;;;15.45;8.52;;;;;;;5.86;39.48;100361.25;5035264;28;20073;-82
2022/03/11 08:16:18;;;;;;;14.38;7.05;;;;;;;5.87;38.61;100367.34;5015880;28;20124;-81
2022/03/11 08:18:46;;;;;;;16.65;7.80;;;;;;;5.87;39.22;100349.75;5010477;28;20449;-80
2022/03/11 08:21:16;;;;;;;15.88;8.10;;;;;;;5.90;39.24;100353.97;5009377;28;20112;-80
2022/03/11 08:23:44;;;;;;;12.00;6.25;;;;;;;5.92;39.07;100354.75;5052748;28;20048;-80
2022/03/11 08:26:11;;;;;;;15.98;7.95;;;;;;;5.96;39.47;100355.47;5030993;28;20048;-81
2022/03/11 08:28:45;;;;;;;13.65;7.38;;;;;;;5.98;39.44;100356.19;5022556;28;20048;-81
2022/03/11 08:31:32;;;;;;;13.32;7.43;;;;;;;5.99;39.51;100355.25;5004897;28;20381;-81
2022/03/11 08:34:00;;;;;;;14.23;7.45;;;;;;;6.03;39.63;100346.22;5027285;28;20118;-80
2022/03/11 08:36:27;;;;;;;13.98;7.68;;;;;;;6.04;39.51;100346.13;5020607;28;20049;-81
2022/03/11 08:38:54;;;;;;;13.50;7.38;;;;;;;6.07;39.62;100358.28;5034814;28;20128;-81
2022/03/11 08:41:22;;;;;;;15.43;7.97;;;;;;;6.11;39.57;100348.38;5026624;28;20488;-80
2022/03/11 08:43:49;;;;;;;13.27;7.32;;;;;;;6.12;39.54;100348.28;5023838;28;20049;-81
2022/03/11 08:46:18;;;;;;;16.30;7.78;;;;;;;6.13;39.34;100344.72;5029532;28;20064;-81
2022/03/11 08:48:45;;;;;;;15.20;7.70;;;;;;;6.21;38.73;100347.72;5031352;28;20052;-81
2022/03/11 08:51:12;;;;;;;13.38;7.22;;;;;;;6.18;39.07;100339.16;5025286;28;20132;-81
2022/03/11 08:53:38;;;;;;;13.40;7.63;;;;;;;6.14;38.82;100340.28;5024997;28;20041;-81
2022/03/11 08:56:05;;;;;;;17.35;7.85;;;;;;;6.13;38.71;100338.59;5015931;28;20128;-81
2022/03/11 08:58:32;;;;;;;15.93;7.40;;;;;;;6.14;39.12;100342.94;5034088;28;20048;-81
2022/03/11 09:00:59;;;;;;;16.73;7.50;;;;;;;6.16;39.07;100347.16;5048346;28;20045;-81
2022/03/11 09:03:26;;;;;;;14.95;7.88;;;;;;;6.20;38.85;100337.25;5035923;28;20040;-81
2022/03/11 09:05:53;;;;;;;12.52;6.85;;;;;;;6.19;39.52;100332.94;5012770;28;20167;-81
2022/03/11 09:08:20;;;;;;;13.68;7.00;;;;;;;6.16;39.70;100330.50;5010382;28;20137;-80
2022/03/11 09:10:47;;;;;;;15.55;7.35;;;;;;;6.21;39.55;100324.00;5050098;28;20504;-81
2022/03/11 09:13:14;;;;;;;15.48;7.70;;;;;;;6.27;39.46;100320.13;5022082;28;20425;-81
2022/03/11 09:15:41;;;;;;;17.05;7.97;;;;;;;6.23;39.36;100318.59;5032551;28;20051;-81
2022/03/11 09:18:10;;;;;;;14.82;7.55;;;;;;;6.28;39.27;100319.16;5004700;28;20049;-81
2022/03/11 09:20:37;;;;;;;17.73;7.53;;;;;;;6.25;39.41;100314.94;5038481;28;20049;-81
2022/03/11 09:23:06;;;;;;;19.73;8.77;;;;;;;6.30;39.20;100315.50;4992733;28;20376;-81
2022/03/11 09:25:33;;;;;;;14.02;6.78;;;;;;;6.32;39.19;100309.28;5031625;28;20045;-81
2022/03/11 09:28:07;;;;;;;15.02;7.90;;;;;;;6.29;39.58;100307.69;5004639;28;20053;-81
2022/03/11 09:30:34;;;;;;;17.05;8.68;;;;;;;6.28;39.61;100300.72;5040041;28;20104;-81
2022/03/11 09:33:01;;;;;;;16.40;8.15;;;;;;;6.29;39.39;100297.97;5018611;28;20041;-81
2022/03/11 09:35:29;;;;;;;25.42;9.70;;;;;;;6.40;38.84;100291.19;5030988;28;20135;-81
2022/03/11 09:37:55;;;;;;;14.40;7.55;;;;;;;6.38;38.73;100291.25;5016987;28;20080;-81
2022/03/11 09:40:22;;;;;;;20.00;8.75;;;;;;;6.32;39.46;100282.91;5035141;28;20047;-82
2022/03/11 09:42:50;;;;;;;15.15;8.15;;;;;;;6.34;39.19;100287.16;5027713;28;20458;-81
2022/03/11 09:45:25;;;;;;;17.50;8.07;;;;;;;6.30;39.18;100286.47;5034107;28;20427;-81
2022/03/11 09:47:53;;;;;;;14.05;7.57;;;;;;;6.35;39.34;100283.56;5001909;28;20128;-81
2022/03/11 09:50:20;;;;;;;14.68;8.57;;;;;;;6.39;39.41;100292.13;5036595;28;20135;-82
2022/03/11 09:52:51;;;;;;;15.93;8.25;;;;;;;6.40;39.92;100276.19;5033832;28;20040;-81
2022/03/11 09:55:19;;;;;;;17.05;7.95;;;;;;;6.47;39.70;100285.41;5017604;28;20044;-81
2022/03/11 09:57:45;;;;;;;16.75;7.95;;;;;;;6.45;39.50;100278.53;5029967;28;20049;-81
2022/03/11 10:00:12;;;;;;;12.52;7.57;;;;;;;6.42;39.98;100274.31;5037655;28;20063;-81
2022/03/11 10:02:50;;;;;;;18.52;8.68;;;;;;;6.45;39.45;100279.38;5029299;28;20536;-81
2022/03/11 10:05:21;;;;;;;19.20;8.70;;;;;;;6.49;39.17;100272.13;5016932;28;20377;-81
2022/03/11 10:08:00;;;;;;;16.75;8.50;;;;;;;6.46;39.38;100275.81;5036330;28;20114;-81
2022/03/11 10:10:28;;;;;;;18.08;8.95;;;;;;;6.47;39.83;100268.75;4993393;28;20377;-81
2022/03/11 10:13:12;;;;;;;15.80;8.52;;;;;;;6.50;39.13;100266.75;4996045;28;20052;-81
2022/03/11 10:15:41;;;;;;;18.52;9.32;;;;;;;6.51;39.63;100267.59;5020696;28;20115;-81
2022/03/11 10:18:14;;;;;;;15.80;8.30;;;;;;;6.52;39.71;100264.84;5035724;28;20045;-81
2022/03/11 10:20:43;;;;;;;14.38;8.43;;;;;;;6.53;39.60;100268.34;5031777;28;20052;-81
2022/03/11 10:23:14;;;;;;;21.15;8.90;;;;;;;6.60;39.40;100258.25;5019282;28;20040;-81
2022/03/11 10:25:43;;;;;;;18.00;8.45;;;;;;;6.65;39.25;100264.06;5001772;28;20111;-81
2022/03/11 10:28:12;;;;;;;13.10;7.47;;;;;;;6.61;39.45;100258.13;5018651;28;20434;-81
2022/03/11 10:30:43;;;;;;;17.00;8.52;;;;;;;6.57;39.80;100254.00;5040009;28;20494;-81
2022/03/11 10:33:12;;;;;;;19.25;8.55;;;;;;;6.64;39.75;100265.00;5000424;28;20047;-81
2022/03/11 10:35:49;;;;;;;20.75;7.97;;;;;;;6.60;39.44;100263.53;5030434;28;20444;-81
2022/03/11 10:38:19;;;;;;;16.10;8.27;;;;;;;6.65;39.95;100256.16;5006005;28;20099;-82
2022/03/11 10:40:55;;;;;;;19.75;8.63;;;;;;;6.69;39.85;100269.06;5031088;28;20602;-82
2022/03/11 10:43:27;;;;;;;17.83;9.15;;;;;;;6.74;39.94;100268.72;5007874;28;20045;-81
2022/03/11 10:46:09;;;;;;;21.70;9.00;;;;;;;6.65;39.56;100258.78;5023913;28;20079;-81
2022/03/11 10:48:47;;;;;;;17.58;8.70;;;;;;;6.72;39.44;100268.00;5024155;28;20056;-82
2022/03/11 10:51:26;;;;;;;15.18;8.27;;;;;;;6.77;39.70;100263.28;5023530;28;20037;-81
2022/03/11 10:53:58;;;;;;;17.17;8.43;;;;;;;6.79;39.72;100261.34;5048123;28;20053;-82
2022/03/11 10:56:39;;;;;;;15.65;8.00;;;;;;;6.71;40.22;100263.66;5014074;28;20435;-82
2022/03/11 10:59:21;;;;;;;19.08;8.82;;;;;;;6.86;39.77;100256.53;5022736;28;20052;-82
2022/03/11 11:01:51;;;;;;;15.90;9.38;;;;;;;6.92;39.63;100250.81;5027288;28;20059;-82
2022/03/11 11:04:19;;;;;;;20.73;9.68;;;;;;;6.99;39.32;100238.91;5018278;28;20365;-81
2022/03/11 11:06:46;;;;;;;16.08;9.35;;;;;;;7.00;39.64;100235.34;5018448;28;20049;-81
2022/03/11 11:09:14;;;;;;;15.30;8.88;;;;;;;7.02;40.15;100233.44;5049233;28;20752;-82
2022/03/11 11:11:42;;;;;;;19.38;9.10;;;;;;;6.98;40.48;100233.75;5055018;28;20048;-82
2022/03/11 11:14:10;;;;;;;19.20;10.68;;;;;;;7.01;39.91;100220.34;5007015;28;20041;-82
2022/03/11 11:16:42;;;;;;;23.05;9.18;;;;;;;7.04;40.21;100218.31;5031111;28;20044;-81
2022/03/11 11:19:16;;;;;;;17.63;8.40;;;;;;;6.99;40.31;100217.78;5030049;28;20041;-81
2022/03/11 11:21:45;;;;;;;19.13;9.38;;;;;;;7.24;40.27;100213.50;4985862;28;20056;-81
2022/03/11 11:24:14;;;;;;;16.92;9.00;;;;;;;7.21;40.09;100211.06;5024587;28;20102;-81